createdAt,value
2022-09-14T00:01:37.094Z,83.24
2022-09-14T00:04:11.410Z,81.82
2022-09-14T00:06:39.880Z,74.08
2022-09-14T00:09:07.576Z,83.46
2022-09-14T00:11:37.044Z,81.25
2022-09-14T00:14:05.520Z,84.57
2022-09-14T00:16:37.662Z,85.89
2022-09-14T00:19:13.530Z,87.08
2022-09-14T00:21:42.509Z,86.43
2022-09-14T00:24:11.499Z,77.42
2022-09-14T00:26:38.602Z,86.25
2022-09-14T00:29:06.138Z,83.94
2022-09-14T00:31:38.014Z,77.34
2022-09-14T00:34:16.492Z,86.97
2022-09-14T00:36:47.397Z,86.92
2022-09-14T00:39:17.495Z,87.42
2022-09-14T00:41:47.466Z,87.81
2022-09-14T00:46:56.785Z,83.15
2022-09-14T00:54:50.217Z,83.41
2022-09-14T00:57:19.414Z,84.83
2022-09-14T00:59:50.737Z,85.12
2022-09-14T01:02:20.924Z,84.71
2022-09-14T01:04:49.536Z,83.87
2022-09-14T01:21:27.690Z,94.12
2022-09-14T01:27:08.850Z,88.81
2022-09-14T01:37:48.965Z,100.00
2022-09-14T01:40:26.960Z,100.00
2022-09-14T01:43:02.317Z,100.00
2022-09-14T01:45:32.334Z,100.00
2022-09-14T01:48:05.256Z,100.00
2022-09-14T01:50:40.335Z,100.00
2022-09-14T01:53:19.383Z,100.00
2022-09-14T02:01:11.130Z,100.00
2022-09-14T02:03:48.166Z,100.00
2022-09-14T02:06:26.149Z,100.00
2022-09-14T02:08:54.372Z,100.00
2022-09-14T02:11:21.854Z,100.00
2022-09-14T02:13:49.033Z,100.00
2022-09-14T02:16:16.288Z,100.00
2022-09-14T02:18:43.775Z,100.00
2022-09-14T02:21:18.893Z,100.00
2022-09-14T02:23:48.991Z,100.00
2022-09-14T02:26:17.715Z,100.00
2022-09-14T02:28:45.016Z,100.00
2022-09-14T02:45:43.202Z,100.00
2022-09-14T02:56:11.475Z,100.00
2022-09-14T02:58:42.997Z,100.00
2022-09-14T03:01:15.897Z,100.00
2022-09-14T03:03:47.094Z,100.00
2022-09-14T03:06:15.111Z,100.00
2022-09-14T03:08:42.612Z,100.00
2022-09-14T03:11:10.474Z,100.00
2022-09-14T03:13:38.508Z,100.00
2022-09-14T03:16:10.112Z,100.00
2022-09-14T03:18:43.554Z,100.00
2022-09-14T03:21:14.985Z,100.00
2022-09-14T03:23:49.724Z,100.00
2022-09-14T03:26:22.791Z,100.00
2022-09-14T03:28:56.808Z,100.00
2022-09-14T03:31:26.095Z,100.00
2022-09-14T03:33:56.723Z,100.00
2022-09-14T03:36:27.436Z,100.00
2022-09-14T03:38:57.690Z,100.00
2022-09-14T03:41:25.940Z,100.00
2022-09-14T03:43:53.246Z,100.00
2022-09-14T03:46:23.332Z,100.00
2022-09-14T03:48:51.004Z,100.00
2022-09-14T03:51:18.495Z,100.00
2022-09-14T03:53:46.720Z,100.00
2022-09-14T03:56:20.070Z,100.00
2022-09-14T03:58:49.210Z,100.00
2022-09-14T04:01:19.739Z,100.00
2022-09-14T04:03:48.221Z,100.00
2022-09-14T04:06:17.392Z,100.00
2022-09-14T04:08:46.826Z,100.00
2022-09-14T04:11:18.887Z,100.00
2022-09-14T04:13:47.812Z,100.00
2022-09-14T04:16:16.572Z,100.00
2022-09-14T04:18:45.061Z,100.00
2022-09-14T04:21:17.027Z,100.00
2022-09-14T04:24:13.427Z,100.00
2022-09-14T04:26:33.330Z,100.00
2022-09-14T04:29:00.553Z,100.00
2022-09-14T04:31:28.542Z,100.00
2022-09-14T04:33:57.180Z,100.00
2022-09-14T04:36:29.267Z,100.00
2022-09-14T04:39:00.382Z,100.00
2022-09-14T04:41:28.969Z,100.00
2022-09-14T04:43:57.318Z,100.00
2022-09-14T04:46:29.082Z,100.00
2022-09-14T04:48:56.523Z,100.00
2022-09-14T04:51:28.351Z,100.00
2022-09-14T04:53:57.924Z,100.00
2022-09-14T04:56:27.495Z,100.00
2022-09-14T04:58:59.417Z,100.00
2022-09-14T05:01:31.091Z,100.00
2022-09-14T05:03:59.059Z,100.00
2022-09-14T05:06:30.736Z,100.00
2022-09-14T05:09:00.176Z,100.00
2022-09-14T05:11:31.829Z,100.00
2022-09-14T05:14:01.258Z,100.00
2022-09-14T05:16:31.648Z,100.00
2022-09-14T05:19:02.068Z,100.00
2022-09-14T05:21:32.421Z,100.00
2022-09-14T05:24:03.278Z,100.00
2022-09-14T05:26:32.325Z,100.00
2022-09-14T05:29:03.530Z,100.00
2022-09-14T05:31:32.196Z,100.00
2022-09-14T05:34:00.256Z,100.00
2022-09-14T05:36:27.651Z,100.00
2022-09-14T05:38:54.909Z,100.00
2022-09-14T05:41:22.077Z,100.00
2022-09-14T05:43:49.260Z,100.00
2022-09-14T05:46:20.743Z,100.00
2022-09-14T05:48:51.824Z,100.00
2022-09-14T05:51:22.928Z,100.00
2022-09-14T05:53:54.717Z,100.00
2022-09-14T05:56:24.354Z,100.00
2022-09-14T05:58:52.417Z,100.00
2022-09-14T06:04:00.447Z,100.00
2022-09-14T06:06:28.050Z,100.00
2022-09-14T06:08:56.235Z,100.00
2022-09-14T06:11:28.386Z,100.00
2022-09-14T06:13:57.207Z,100.00
2022-09-14T06:16:27.746Z,100.00
2022-09-14T06:18:57.217Z,100.00
2022-09-14T06:21:31.163Z,100.00
2022-09-14T06:23:58.705Z,100.00
2022-09-14T06:26:26.563Z,100.00
2022-09-14T06:28:54.400Z,100.00
2022-09-14T06:31:22.893Z,100.00
2022-09-14T06:33:51.981Z,100.00
2022-09-14T06:36:22.965Z,100.00
2022-09-14T06:38:51.611Z,100.00
2022-09-14T06:41:23.353Z,100.00
2022-09-14T06:43:50.988Z,100.00
2022-09-14T06:46:23.521Z,100.00
2022-09-14T06:48:56.573Z,100.00
2022-09-14T06:54:06.078Z,100.00
2022-09-14T06:56:37.260Z,100.00
2022-09-14T06:59:06.959Z,100.00
2022-09-14T07:01:34.845Z,100.00
2022-09-14T07:04:03.970Z,100.00
2022-09-14T07:06:40.663Z,100.00
2022-09-14T07:09:08.334Z,100.00
2022-09-14T07:11:36.578Z,100.00
2022-09-14T07:14:04.542Z,100.00
2022-09-14T07:16:34.947Z,100.00
2022-09-14T07:19:06.278Z,100.00
2022-09-14T07:21:34.819Z,100.00
2022-09-14T07:24:03.702Z,100.00
2022-09-14T07:26:39.553Z,100.00
2022-09-14T07:29:12.161Z,100.00
2022-09-14T07:31:48.172Z,100.00
2022-09-14T07:34:16.580Z,100.00
2022-09-14T07:36:44.274Z,100.00
2022-09-14T07:39:15.200Z,100.00
2022-09-14T07:41:43.334Z,100.00
2022-09-14T07:44:15.657Z,100.00
2022-09-14T07:46:45.228Z,100.00
2022-09-14T07:49:13.217Z,100.00
2022-09-14T07:51:40.701Z,100.00
2022-09-14T07:54:12.294Z,100.00
2022-09-14T07:56:40.443Z,100.00
2022-09-14T07:59:31.341Z,100.00
2022-09-14T08:01:55.120Z,100.00
2022-09-14T08:04:36.261Z,100.00
2022-09-14T08:07:16.311Z,100.00
2022-09-14T08:09:56.324Z,100.00
2022-09-14T08:12:35.582Z,100.00
2022-09-14T08:15:13.968Z,100.00
2022-09-14T08:17:54.134Z,100.00
2022-09-14T08:20:34.249Z,100.00
2022-09-14T08:23:14.536Z,100.00
2022-09-14T08:25:53.158Z,100.00
2022-09-14T08:28:31.781Z,100.00
2022-09-14T08:31:19.222Z,100.00
2022-09-14T08:34:02.513Z,100.00
2022-09-14T08:36:43.894Z,100.00
2022-09-14T08:39:23.218Z,100.00
2022-09-14T08:42:02.520Z,100.00
2022-09-14T08:44:56.567Z,100.00
2022-09-14T08:47:39.024Z,100.00
2022-09-14T08:50:21.964Z,100.00
2022-09-14T08:53:01.888Z,100.00
2022-09-14T08:55:49.586Z,100.00
2022-09-14T09:07:39.813Z,100.00
2022-09-14T09:10:24.967Z,100.00
2022-09-14T09:13:06.864Z,100.00
2022-09-14T09:18:47.874Z,100.00
2022-09-14T09:21:33.579Z,98.83
2022-09-14T09:26:49.347Z,95.45
2022-09-14T09:29:27.425Z,90.77
2022-09-14T09:32:25.088Z,91.85
2022-09-14T09:35:22.285Z,89.77
2022-09-14T09:37:55.549Z,87.73
2022-09-14T09:40:35.858Z,87.78
2022-09-14T09:43:28.665Z,90.32
2022-09-14T09:48:45.605Z,84.12
2022-09-14T09:53:55.537Z,81.62
2022-09-14T09:56:27.997Z,83.03
2022-09-14T09:58:55.468Z,81.99
2022-09-14T10:01:34.490Z,77.17
2022-09-14T10:09:27.445Z,77.14
2022-09-14T10:12:01.744Z,72.97
2022-09-14T10:19:55.193Z,69.96
2022-09-14T10:22:41.245Z,68.24
2022-09-14T10:28:01.309Z,66.99
2022-09-14T10:30:36.939Z,70.28
2022-09-14T10:33:08.932Z,76.02
2022-09-14T10:42:12.947Z,71.83
2022-09-14T10:59:18.807Z,70.25
2022-09-14T11:28:50.513Z,55.82
2022-09-14T12:10:21.592Z,52.46
2022-09-14T12:37:00.642Z,61.92
2022-09-14T12:39:32.320Z,61.18
2022-09-14T12:42:04.440Z,59.53
2022-09-14T12:50:16.657Z,67.71
2022-09-14T12:56:03.408Z,72.56
2022-09-14T12:58:59.897Z,91.52
2022-09-14T13:05:18.727Z,100.00
2022-09-14T13:07:47.028Z,98.82
2022-09-14T13:10:25.282Z,100.00
2022-09-14T13:12:52.760Z,100.00
2022-09-14T13:15:33.660Z,100.00
2022-09-14T13:20:40.356Z,100.00
2022-09-14T13:23:22.146Z,100.00
2022-09-14T13:25:50.007Z,100.00
2022-09-14T13:28:20.168Z,100.00
2022-09-14T13:30:59.473Z,100.00
2022-09-14T13:33:29.721Z,100.00
2022-09-14T13:38:37.057Z,100.00
2022-09-14T13:41:11.025Z,100.00
2022-09-14T13:43:38.433Z,100.00
2022-09-14T13:46:08.515Z,100.00
2022-09-14T13:48:40.887Z,100.00
2022-09-14T13:51:10.326Z,100.00
2022-09-14T13:53:46.675Z,100.00
2022-09-14T13:56:34.103Z,100.00
2022-09-14T14:04:41.823Z,100.00
2022-09-14T14:09:55.127Z,100.00
2022-09-14T14:18:00.459Z,100.00
2022-09-14T14:20:34.444Z,100.00
2022-09-14T14:23:20.474Z,100.00
2022-09-14T14:25:54.156Z,100.00
2022-09-14T14:28:29.614Z,100.00
2022-09-14T14:31:07.850Z,100.00
2022-09-14T14:33:45.453Z,100.00
2022-09-14T14:36:14.864Z,100.00
2022-09-14T14:38:44.122Z,100.00
2022-09-14T14:41:16.630Z,100.00
2022-09-14T14:43:46.836Z,100.00
2022-09-14T14:46:14.919Z,100.00
2022-09-14T14:48:43.903Z,100.00
2022-09-14T14:51:15.113Z,100.00
2022-09-14T14:53:43.103Z,100.00
2022-09-14T14:56:12.872Z,100.00
2022-09-14T14:58:45.791Z,100.00
2022-09-14T15:01:13.932Z,100.00
2022-09-14T15:03:41.296Z,100.00
2022-09-14T15:08:53.855Z,100.00
2022-09-14T15:11:21.845Z,100.00
2022-09-14T15:13:49.942Z,100.00
2022-09-14T15:16:17.681Z,100.00
2022-09-14T15:18:45.344Z,100.00
2022-09-14T15:21:12.514Z,100.00
2022-09-14T15:23:40.349Z,100.00
2022-09-14T15:26:07.877Z,100.00
2022-09-14T15:28:38.663Z,100.00
2022-09-14T15:31:08.046Z,100.00
2022-09-14T15:33:35.223Z,100.00
2022-09-14T15:36:03.377Z,100.00
2022-09-14T15:38:30.496Z,100.00
2022-09-14T15:40:57.615Z,100.00
2022-09-14T15:43:24.748Z,100.00
2022-09-14T15:45:52.005Z,100.00
2022-09-14T15:48:19.890Z,100.00
2022-09-14T15:50:48.628Z,100.00
2022-09-14T15:53:18.370Z,100.00
2022-09-14T15:55:46.187Z,100.00
2022-09-14T15:58:13.579Z,100.00
2022-09-14T16:00:44.981Z,100.00
2022-09-14T16:03:12.355Z,100.00
2022-09-14T16:05:40.343Z,100.00
2022-09-14T16:08:15.175Z,100.00
2022-09-14T16:10:45.793Z,84.74
2022-09-14T16:13:12.922Z,70.51
2022-09-14T16:15:40.169Z,71.63
2022-09-14T16:18:08.594Z,64.61
2022-09-14T16:20:36.011Z,61.38
2022-09-14T16:23:03.072Z,67.44
2022-09-14T16:25:30.145Z,77.12
2022-09-14T16:27:57.188Z,86.35
2022-09-14T16:30:24.222Z,92.37
2022-09-14T16:32:52.164Z,100.00
2022-09-14T16:35:19.260Z,100.00
2022-09-14T16:37:46.279Z,100.00
2022-09-14T16:40:13.874Z,100.00
2022-09-14T16:42:41.195Z,100.00
2022-09-14T16:45:08.806Z,100.00
2022-09-14T16:47:36.837Z,100.00
2022-09-14T16:50:05.332Z,100.00
2022-09-14T16:52:32.831Z,100.00
2022-09-14T16:55:00.424Z,100.00
2022-09-14T16:57:29.718Z,100.00
2022-09-14T16:59:56.870Z,100.00
2022-09-14T17:02:26.129Z,100.00
2022-09-14T17:04:53.860Z,100.00
2022-09-14T17:07:22.278Z,100.00
2022-09-14T17:09:49.661Z,100.00
2022-09-14T17:12:19.780Z,100.00
2022-09-14T17:14:47.737Z,100.00
2022-09-14T17:17:14.925Z,100.00
2022-09-14T17:19:43.798Z,100.00
2022-09-14T17:22:11.087Z,100.00
2022-09-14T17:24:38.533Z,100.00
2022-09-14T17:27:05.721Z,100.00
2022-09-14T17:29:35.430Z,100.00
2022-09-14T17:32:02.667Z,100.00
2022-09-14T17:34:29.801Z,100.00
2022-09-14T17:36:57.534Z,100.00
2022-09-14T17:39:25.389Z,100.00
2022-09-14T17:41:52.523Z,100.00
2022-09-14T17:44:19.984Z,100.00
2022-09-14T17:46:52.702Z,100.00
2022-09-14T17:49:22.860Z,100.00
2022-09-14T17:51:51.548Z,100.00
2022-09-14T17:54:20.200Z,100.00
2022-09-14T17:56:47.949Z,100.00
2022-09-14T17:59:20.392Z,100.00
2022-09-14T18:01:49.464Z,100.00
2022-09-14T18:04:18.128Z,100.00
2022-09-14T18:06:49.121Z,100.00
2022-09-14T18:09:19.709Z,100.00
2022-09-14T18:11:48.978Z,100.00
2022-09-14T18:14:16.755Z,100.00
2022-09-14T18:16:45.162Z,100.00
2022-09-14T18:19:15.426Z,100.00
2022-09-14T18:21:44.426Z,100.00
2022-09-14T18:24:13.273Z,100.00
2022-09-14T18:26:40.980Z,100.00
2022-09-14T18:29:08.429Z,100.00
2022-09-14T18:31:38.127Z,100.00
2022-09-14T18:34:05.227Z,100.00
2022-09-14T18:36:32.500Z,100.00
2022-09-14T18:38:59.757Z,100.00
2022-09-14T18:41:31.239Z,100.00
2022-09-14T18:43:58.947Z,100.00
2022-09-14T18:46:28.652Z,100.00
2022-09-14T18:49:00.375Z,100.00
2022-09-14T18:51:29.750Z,100.00
2022-09-14T18:54:06.949Z,100.00
2022-09-14T18:56:36.960Z,100.00
2022-09-14T18:59:10.202Z,100.00
2022-09-14T19:01:38.775Z,100.00
2022-09-14T19:04:11.142Z,100.00
2022-09-14T19:06:40.314Z,100.00
2022-09-14T19:09:09.247Z,100.00
2022-09-14T19:11:36.487Z,100.00
2022-09-14T19:14:10.064Z,100.00
2022-09-14T19:16:40.293Z,100.00
2022-09-14T19:19:11.565Z,100.00
2022-09-14T19:21:38.817Z,100.00
2022-09-14T19:24:11.396Z,100.00
2022-09-14T19:26:45.728Z,100.00
2022-09-14T19:29:17.881Z,100.00
2022-09-14T19:31:50.545Z,100.00
2022-09-14T19:34:21.505Z,100.00
2022-09-14T19:36:49.794Z,100.00
2022-09-14T19:39:16.986Z,100.00
2022-09-14T19:41:44.171Z,100.00
2022-09-14T19:44:12.126Z,100.00
2022-09-14T19:46:40.053Z,100.00
2022-09-14T19:49:17.969Z,100.00
2022-09-14T19:51:45.728Z,100.00
2022-09-14T19:54:13.819Z,100.00
2022-09-14T19:56:41.479Z,100.00
2022-09-14T19:59:09.284Z,100.00
2022-09-14T20:01:39.077Z,100.00
2022-09-14T20:04:08.340Z,100.00
2022-09-14T20:06:40.377Z,100.00
2022-09-14T20:09:14.807Z,100.00
2022-09-14T20:11:45.193Z,100.00
2022-09-14T20:14:18.509Z,100.00
2022-09-14T20:16:49.860Z,100.00
2022-09-14T20:19:21.852Z,100.00
2022-09-14T20:21:51.145Z,100.00
2022-09-14T20:24:25.414Z,100.00
2022-09-14T20:26:56.593Z,100.00
2022-09-14T20:29:26.349Z,100.00
2022-09-14T20:31:53.820Z,100.00
2022-09-14T20:34:21.853Z,100.00
2022-09-14T20:36:51.697Z,100.00
2022-09-14T20:39:21.057Z,100.00
2022-09-14T20:41:48.965Z,100.00
2022-09-14T20:44:16.961Z,100.00
2022-09-14T20:46:44.885Z,100.00
2022-09-14T20:49:16.440Z,100.00
2022-09-14T20:51:43.949Z,100.00
2022-09-14T20:54:14.748Z,100.00
2022-09-14T20:56:43.420Z,100.00
2022-09-14T20:59:14.673Z,100.00
2022-09-14T21:01:44.464Z,100.00
2022-09-14T21:04:19.555Z,100.00
2022-09-14T21:06:53.780Z,100.00
2022-09-14T21:09:24.366Z,100.00
2022-09-14T21:11:52.834Z,100.00
2022-09-14T21:14:21.184Z,100.00
2022-09-14T21:16:52.703Z,100.00
2022-09-14T21:19:23.825Z,100.00
2022-09-14T21:21:51.537Z,100.00
2022-09-14T21:24:20.811Z,100.00
2022-09-14T21:26:48.222Z,100.00
2022-09-14T21:29:20.948Z,100.00
2022-09-14T21:31:48.747Z,100.00
2022-09-14T21:34:16.555Z,100.00
2022-09-14T21:36:47.748Z,100.00
2022-09-14T21:39:19.327Z,100.00
2022-09-14T21:41:46.680Z,100.00
2022-09-14T21:44:14.547Z,100.00
2022-09-14T21:46:43.111Z,100.00
2022-09-14T21:49:21.797Z,100.00
2022-09-14T21:51:49.513Z,100.00
2022-09-14T21:54:17.225Z,100.00
2022-09-14T21:56:46.832Z,100.00
2022-09-14T21:59:18.298Z,100.00
2022-09-14T22:01:46.846Z,100.00
2022-09-14T22:04:17.747Z,100.00
2022-09-14T22:06:45.633Z,100.00
2022-09-14T22:09:16.815Z,100.00
2022-09-14T22:11:45.036Z,100.00
2022-09-14T22:14:18.131Z,100.00
2022-09-14T22:16:48.861Z,100.00
2022-09-14T22:19:28.389Z,100.00
2022-09-14T22:21:56.638Z,100.00
2022-09-14T22:24:33.539Z,100.00
2022-09-14T22:27:04.374Z,100.00
2022-09-14T22:29:32.002Z,100.00
2022-09-14T22:32:00.184Z,100.00
2022-09-14T22:34:28.397Z,100.00
2022-09-14T22:36:55.920Z,100.00
2022-09-14T22:39:23.829Z,100.00
2022-09-14T22:41:50.890Z,100.00
2022-09-14T22:44:17.990Z,100.00
2022-09-14T22:46:46.020Z,100.00
2022-09-14T22:49:13.093Z,100.00
2022-09-14T22:51:40.158Z,100.00
2022-09-14T22:54:07.963Z,100.00
2022-09-14T22:56:38.197Z,100.00
2022-09-14T22:59:07.841Z,100.00
2022-09-14T23:01:40.465Z,100.00
2022-09-14T23:04:11.742Z,100.00
2022-09-14T23:06:44.799Z,100.00
2022-09-14T23:09:17.668Z,100.00
2022-09-14T23:11:45.824Z,100.00
2022-09-14T23:14:15.259Z,100.00
2022-09-14T23:16:45.070Z,100.00
2022-09-14T23:19:17.087Z,100.00
2022-09-14T23:21:48.381Z,100.00
2022-09-14T23:24:16.298Z,100.00
2022-09-14T23:26:43.724Z,100.00
2022-09-14T23:29:16.827Z,100.00
2022-09-14T23:31:44.726Z,100.00
2022-09-14T23:34:12.100Z,100.00
2022-09-14T23:36:39.419Z,100.00
2022-09-14T23:39:07.045Z,100.00
2022-09-14T23:41:34.106Z,100.00
2022-09-14T23:44:01.629Z,100.00
2022-09-14T23:46:28.749Z,100.00
2022-09-14T23:48:55.886Z,100.00
2022-09-14T23:51:22.920Z,100.00
2022-09-14T23:53:50.293Z,100.00
2022-09-14T23:56:17.936Z,100.00
2022-09-14T23:58:45.704Z,100.00
